Time;durP1;ratioP1;P1;durP2;ratioP2;P2;SDS_P1;SDS_P2;PMS_P1;PMS_P2;Temp;Humidity;BMP_temperature;BMP_pressure;BME280_temperature;BME280_humidity;BME280_pressure;Samples;Min_cycle;Max_cycle;Signal;HPM_P1;HPM_P2
2021/07/10 00:00:25;;;;;;;2.15;0.98;;;;;;;;;;5034621;28;20029;-73
2021/07/10 00:02:51;;;;;;;1.50;1.30;;;;;;;;;;5034430;28;20380;-72
2021/07/10 00:05:17;;;;;;;2.40;1.60;;;;;;;;;;5034022;28;20353;-73
2021/07/10 00:07:43;;;;;;;4.32;1.70;;;;;;;;;;5033811;28;20029;-73
2021/07/10 00:10:10;;;;;;;1.95;1.70;;;;;;;;;;5033792;28;20104;-73
2021/07/10 00:12:36;;;;;;;1.75;1.30;;;;;;;;;;5034511;28;20104;-72
2021/07/10 00:15:04;;;;;;;2.55;1.58;;;;;;;;;;5034226;28;20034;-71
2021/07/10 00:17:30;;;;;;;3.97;1.70;;;;;;;;;;5033639;28;20026;-73
2021/07/10 00:19:56;;;;;;;3.22;1.65;;;;;;;;;;5033837;28;20017;-73
2021/07/10 00:22:22;;;;;;;3.42;1.50;;;;;;;;;;5033771;28;20017;-73
2021/07/10 00:24:48;;;;;;;2.03;1.38;;;;;;;;;;5033584;28;20033;-73
2021/07/10 00:27:14;;;;;;;2.60;1.83;;;;;;;;;;5033956;28;20459;-73
2021/07/10 00:29:40;;;;;;;6.40;1.63;;;;;;;;;;5033313;28;20517;-73
2021/07/10 00:32:07;;;;;;;1.63;1.42;;;;;;;;;;5033624;28;20040;-73
2021/07/10 00:34:33;;;;;;;2.92;1.98;;;;;;;;;;5033734;28;20451;-72
2021/07/10 00:36:59;;;;;;;1.70;1.60;;;;;;;;;;5033416;28;20387;-72
2021/07/10 00:39:25;;;;;;;1.55;1.40;;;;;;;;;;5033425;28;20096;-72
2021/07/10 00:41:51;;;;;;;3.08;1.52;;;;;;;;;;5034176;28;20053;-72
2021/07/10 00:44:17;;;;;;;1.65;1.40;;;;;;;;;;5033788;28;20022;-72
2021/07/10 00:46:43;;;;;;;4.07;1.70;;;;;;;;;;5033895;28;20025;-72
2021/07/10 00:49:09;;;;;;;2.40;2.10;;;;;;;;;;5033518;28;20096;-72
2021/07/10 00:51:35;;;;;;;2.15;1.55;;;;;;;;;;5033534;28;20026;-72
2021/07/10 00:54:02;;;;;;;5.70;1.92;;;;;;;;;;5032921;28;20053;-72
2021/07/10 00:56:28;;;;;;;2.60;1.45;;;;;;;;;;5033621;28;20025;-72
2021/07/10 00:58:54;;;;;;;1.85;1.55;;;;;;;;;;5033312;28;20025;-72
2021/07/10 01:01:20;;;;;;;3.28;1.45;;;;;;;;;;5033337;28;20021;-73
2021/07/10 01:03:47;;;;;;;1.88;1.70;;;;;;;;;;5033354;28;20037;-72
2021/07/10 01:06:13;;;;;;;8.13;1.40;;;;;;;;;;5033284;28;20022;-73
2021/07/10 01:08:41;;;;;;;3.33;1.42;;;;;;;;;;5033100;28;20356;-72
2021/07/10 01:11:07;;;;;;;1.42;1.30;;;;;;;;;;5033329;28;20071;-72
2021/07/10 01:13:33;;;;;;;1.65;1.42;;;;;;;;;;5033089;28;20075;-72
2021/07/10 01:15:59;;;;;;;1.63;1.52;;;;;;;;;;5033258;28;20129;-72
2021/07/10 01:18:25;;;;;;;2.22;1.67;;;;;;;;;;5033103;28;20033;-72
2021/07/10 01:20:52;;;;;;;1.33;1.23;;;;;;;;;;5033231;28;20033;-72
2021/07/10 01:23:19;;;;;;;1.65;1.42;;;;;;;;;;5033005;28;20056;-73
2021/07/10 01:25:45;;;;;;;2.67;1.73;;;;;;;;;;5033527;28;20480;-73
2021/07/10 01:28:11;;;;;;;2.13;1.20;;;;;;;;;;5033246;28;20056;-72
2021/07/10 01:30:38;;;;;;;7.32;1.65;;;;;;;;;;5033507;28;20052;-72
2021/07/10 01:33:04;;;;;;;2.60;1.77;;;;;;;;;;5033367;28;20108;-72
2021/07/10 01:35:31;;;;;;;1.15;1.08;;;;;;;;;;5032985;28;20029;-72
2021/07/10 01:37:57;;;;;;;2.45;1.50;;;;;;;;;;5033015;28;20079;-72
2021/07/10 01:40:23;;;;;;;1.38;1.27;;;;;;;;;;5033873;28;20480;-72
2021/07/10 01:42:49;;;;;;;1.30;1.20;;;;;;;;;;5037187;28;20104;-72
2021/07/10 01:45:17;;;;;;;3.58;2.15;;;;;;;;;;5036943;28;20036;-72
2021/07/10 01:47:43;;;;;;;1.30;1.20;;;;;;;;;;5036754;28;20030;-72
2021/07/10 01:50:10;;;;;;;1.98;1.60;;;;;;;;;;5036743;28;20025;-73
2021/07/10 01:52:36;;;;;;;2.90;2.70;;;;;;;;;;5036578;28;20029;-72
2021/07/10 01:55:03;;;;;;;1.50;1.40;;;;;;;;;;5036319;28;20123;-72
2021/07/10 01:57:29;;;;;;;1.52;1.42;;;;;;;;;;5036335;28;20053;-72
2021/07/10 01:59:55;;;;;;;1.45;1.35;;;;;;;;;;5036546;28;20395;-72
2021/07/10 02:02:21;;;;;;;2.28;1.77;;;;;;;;;;5036617;28;20091;-72
2021/07/10 02:04:48;;;;;;;1.83;1.73;;;;;;;;;;5036219;28;20032;-73
2021/07/10 02:07:14;;;;;;;2.15;1.60;;;;;;;;;;5036341;28;20029;-72
2021/07/10 02:09:40;;;;;;;2.80;2.28;;;;;;;;;;5036201;28;20029;-72
2021/07/10 02:12:07;;;;;;;2.13;1.50;;;;;;;;;;5036163;28;20029;-72
2021/07/10 02:14:33;;;;;;;2.08;1.38;;;;;;;;;;5036166;28;20087;-72
2021/07/10 02:16:59;;;;;;;2.25;1.30;;;;;;;;;;5036203;28;20029;-72
2021/07/10 02:19:25;;;;;;;1.50;1.40;;;;;;;;;;5035742;28;20021;-73
2021/07/10 02:21:51;;;;;;;2.13;1.50;;;;;;;;;;5036362;28;20544;-72
2021/07/10 02:24:17;;;;;;;2.22;1.73;;;;;;;;;;5036096;28;20026;-72
2021/07/10 02:26:43;;;;;;;2.63;1.73;;;;;;;;;;5035932;28;20071;-72
2021/07/10 02:29:09;;;;;;;3.53;1.67;;;;;;;;;;5035681;28;20031;-72
2021/07/10 02:31:35;;;;;;;2.80;1.40;;;;;;;;;;5035834;28;20030;-72
2021/07/10 02:34:01;;;;;;;1.75;1.30;;;;;;;;;;5035591;28;20045;-72
2021/07/10 02:36:27;;;;;;;3.28;1.40;;;;;;;;;;5035470;28;20061;-72
2021/07/10 02:38:53;;;;;;;3.03;1.45;;;;;;;;;;5035951;28;20376;-72
2021/07/10 02:41:20;;;;;;;1.05;0.98;;;;;;;;;;5035678;28;20053;-73
2021/07/10 02:43:46;;;;;;;9.48;2.00;;;;;;;;;;5035587;28;20491;-72
2021/07/10 02:46:12;;;;;;;3.47;1.17;;;;;;;;;;5035664;28;20494;-72
2021/07/10 02:48:38;;;;;;;1.55;1.17;;;;;;;;;;5035761;28;20560;-72
2021/07/10 02:51:04;;;;;;;2.25;1.40;;;;;;;;;;5034956;28;20379;-71
2021/07/10 02:53:30;;;;;;;1.38;1.27;;;;;;;;;;5034924;28;20053;-72
2021/07/10 02:55:56;;;;;;;1.30;1.20;;;;;;;;;;5036041;28;20075;-72
2021/07/10 02:58:22;;;;;;;5.03;1.33;;;;;;;;;;5035291;28;20040;-72
2021/07/10 03:00:48;;;;;;;10.43;1.80;;;;;;;;;;5035390;28;20033;-72
2021/07/10 03:03:14;;;;;;;6.80;2.47;;;;;;;;;;5035441;28;20017;-72
2021/07/10 03:05:40;;;;;;;4.55;1.70;;;;;;;;;;5034998;28;20049;-72
2021/07/10 03:08:06;;;;;;;1.60;1.50;;;;;;;;;;5035224;28;20025;-72
2021/07/10 03:10:32;;;;;;;3.55;2.33;;;;;;;;;;5035040;28;20033;-72
2021/07/10 03:12:59;;;;;;;5.25;2.15;;;;;;;;;;5035177;28;20037;-72
2021/07/10 03:15:25;;;;;;;4.43;1.40;;;;;;;;;;5034980;28;20037;-72
2021/07/10 03:17:51;;;;;;;1.50;1.40;;;;;;;;;;5035096;28;20032;-72
2021/07/10 03:20:19;;;;;;;2.00;1.58;;;;;;;;;;5034575;28;20026;-73
2021/07/10 03:22:45;;;;;;;4.63;1.80;;;;;;;;;;5035283;28;20221;-72
2021/07/10 03:25:12;;;;;;;2.50;1.25;;;;;;;;;;5034930;28;20026;-72
2021/07/10 03:27:38;;;;;;;1.45;1.30;;;;;;;;;;5034647;28;20392;-72
2021/07/10 03:30:04;;;;;;;5.03;1.50;;;;;;;;;;5034525;28;20053;-72
2021/07/10 03:32:30;;;;;;;2.10;1.90;;;;;;;;;;5034464;28;20025;-72
2021/07/10 03:34:57;;;;;;;2.10;1.60;;;;;;;;;;5034519;28;20033;-72
2021/07/10 03:37:23;;;;;;;2.97;1.70;;;;;;;;;;5034551;28;20071;-72
2021/07/10 03:39:49;;;;;;;3.22;1.30;;;;;;;;;;5034638;28;20030;-72
2021/07/10 03:42:15;;;;;;;2.50;1.73;;;;;;;;;;5034690;28;20117;-72
2021/07/10 03:44:41;;;;;;;1.52;1.38;;;;;;;;;;5034369;28;20029;-72
2021/07/10 03:47:07;;;;;;;1.63;1.50;;;;;;;;;;5034574;28;20475;-72
2021/07/10 03:49:33;;;;;;;5.32;2.03;;;;;;;;;;5033849;28;20502;-72
2021/07/10 03:51:59;;;;;;;2.75;1.58;;;;;;;;;;5034789;28;20475;-72
2021/07/10 03:54:25;;;;;;;7.70;2.10;;;;;;;;;;5034666;28;20049;-72
2021/07/10 03:56:51;;;;;;;1.70;1.42;;;;;;;;;;5034306;28;20026;-72
2021/07/10 03:59:17;;;;;;;2.35;1.70;;;;;;;;;;5034285;28;20490;-72
2021/07/10 04:01:45;;;;;;;5.15;1.45;;;;;;;;;;5034056;28;20481;-72
2021/07/10 04:04:12;;;;;;;3.67;1.75;;;;;;;;;;5033556;28;20124;-72
2021/07/10 04:06:38;;;;;;;5.13;3.10;;;;;;;;;;5034527;28;20029;-72
2021/07/10 04:09:04;;;;;;;5.28;2.03;;;;;;;;;;5034174;28;20025;-72
2021/07/10 04:11:30;;;;;;;5.47;1.95;;;;;;;;;;5033570;28;20471;-72
2021/07/10 04:13:56;;;;;;;1.95;1.63;;;;;;;;;;5033960;28;20037;-72
2021/07/10 04:16:22;;;;;;;2.53;1.77;;;;;;;;;;5033659;28;20479;-72
2021/07/10 04:18:48;;;;;;;4.32;1.75;;;;;;;;;;5033508;28;20087;-73
2021/07/10 04:21:14;;;;;;;1.38;1.25;;;;;;;;;;5034079;28;20047;-72
2021/07/10 04:23:41;;;;;;;2.08;1.60;;;;;;;;;;5033620;28;20041;-72
2021/07/10 04:26:07;;;;;;;1.40;1.30;;;;;;;;;;5033959;28;20030;-72
2021/07/10 04:28:33;;;;;;;2.03;1.60;;;;;;;;;;5033895;28;20029;-72
2021/07/10 04:30:59;;;;;;;1.90;1.80;;;;;;;;;;5033452;28;20479;-72
2021/07/10 04:33:25;;;;;;;5.38;1.60;;;;;;;;;;5033384;28;20064;-72
2021/07/10 04:35:51;;;;;;;1.40;1.30;;;;;;;;;;5034361;28;20021;-72
2021/07/10 04:38:17;;;;;;;2.83;1.67;;;;;;;;;;5033821;28;20116;-72
2021/07/10 04:40:44;;;;;;;4.85;1.50;;;;;;;;;;5033817;28;20087;-72
2021/07/10 04:43:11;;;;;;;6.28;1.70;;;;;;;;;;5033578;28;20074;-72
2021/07/10 04:45:37;;;;;;;2.05;1.75;;;;;;;;;;5033294;28;20033;-72
2021/07/10 04:48:03;;;;;;;4.32;1.60;;;;;;;;;;5032867;28;20021;-73
2021/07/10 04:50:29;;;;;;;3.70;1.50;;;;;;;;;;5031841;28;20474;-72
2021/07/10 04:52:55;;;;;;;1.40;1.30;;;;;;;;;;5032394;28;20032;-73
2021/07/10 04:55:21;;;;;;;3.92;1.20;;;;;;;;;;5029010;28;20525;-72
2021/07/10 04:57:48;;;;;;;1.73;1.63;;;;;;;;;;5031855;28;20438;-72
2021/07/10 05:00:14;;;;;;;2.30;2.10;;;;;;;;;;5031949;28;20163;-73
2021/07/10 05:02:40;;;;;;;3.17;2.33;;;;;;;;;;5021144;28;20489;-73
2021/07/10 05:05:07;;;;;;;8.52;1.92;;;;;;;;;;5022991;28;20021;-72
2021/07/10 05:07:33;;;;;;;3.80;1.65;;;;;;;;;;5021785;28;20023;-72
2021/07/10 05:09:59;;;;;;;3.40;2.50;;;;;;;;;;5031604;28;20487;-73
2021/07/10 05:12:25;;;;;;;4.25;1.42;;;;;;;;;;5031765;28;20487;-72
2021/07/10 05:14:51;;;;;;;2.25;2.00;;;;;;;;;;5028824;28;20376;-74
2021/07/10 05:17:17;;;;;;;2.25;1.90;;;;;;;;;;5035567;28;20030;-73
2021/07/10 05:19:44;;;;;;;2.50;1.73;;;;;;;;;;5035840;28;20022;-73
2021/07/10 05:22:10;;;;;;;2.45;1.92;;;;;;;;;;5024908;28;20117;-74
2021/07/10 05:24:36;;;;;;;2.22;1.80;;;;;;;;;;5026700;28;20029;-73
2021/07/10 05:27:02;;;;;;;1.63;1.52;;;;;;;;;;5025734;28;20025;-73
2021/07/10 05:29:28;;;;;;;3.15;1.85;;;;;;;;;;5026353;28;20392;-72
2021/07/10 05:31:55;;;;;;;3.22;2.03;;;;;;;;;;5024560;28;20079;-72
2021/07/10 05:34:21;;;;;;;1.45;1.33;;;;;;;;;;5035479;28;20094;-73
2021/07/10 05:36:48;;;;;;;1.63;1.52;;;;;;;;;;5036012;28;20022;-72
2021/07/10 05:39:14;;;;;;;5.18;1.95;;;;;;;;;;5035893;28;20103;-71
2021/07/10 05:41:40;;;;;;;2.55;1.80;;;;;;;;;;5035152;28;20032;-72
2021/07/10 05:44:06;;;;;;;3.17;1.92;;;;;;;;;;5035775;28;20029;-71
2021/07/10 05:46:32;;;;;;;2.28;2.08;;;;;;;;;;5024173;28;20356;-70
2021/07/10 05:48:59;;;;;;;2.75;1.70;;;;;;;;;;5027001;28;20021;-70
2021/07/10 05:51:25;;;;;;;2.00;1.58;;;;;;;;;;5024361;28;20038;-70
2021/07/10 05:53:51;;;;;;;2.47;2.03;;;;;;;;;;5026372;28;20048;-71
2021/07/10 05:56:17;;;;;;;1.42;1.33;;;;;;;;;;5024874;28;20022;-71
2021/07/10 05:58:43;;;;;;;0.90;0.90;;;;;;;;;;5025329;28;20414;-71
2021/07/10 06:01:10;;;;;;;5.90;2.15;;;;;;;;;;5026620;28;20037;-73
2021/07/10 06:03:36;;;;;;;3.38;1.40;;;;;;;;;;5033499;28;20372;-72
2021/07/10 06:06:02;;;;;;;1.27;1.17;;;;;;;;;;5025800;28;20418;-72
2021/07/10 06:08:28;;;;;;;5.50;1.45;;;;;;;;;;5026749;28;20018;-70
2021/07/10 06:10:54;;;;;;;4.88;1.23;;;;;;;;;;5035314;28;20076;-69
2021/07/10 06:13:20;;;;;;;0.93;0.93;;;;;;;;;;5016259;28;20030;-71
2021/07/10 06:15:46;;;;;;;1.08;1.05;;;;;;;;;;5016321;28;20031;-72
2021/07/10 06:18:12;;;;;;;1.10;0.93;;;;;;;;;;5016780;28;20544;-71
2021/07/10 06:20:39;;;;;;;1.33;1.23;;;;;;;;;;5016481;28;20022;-70
2021/07/10 06:23:05;;;;;;;1.17;1.08;;;;;;;;;;5016109;28;20476;-70
2021/07/10 06:25:33;;;;;;;1.15;0.90;;;;;;;;;;5015559;28;20022;-70
2021/07/10 06:27:59;;;;;;;1.60;1.50;;;;;;;;;;5015740;28;20083;-70
2021/07/10 06:30:25;;;;;;;1.27;0.98;;;;;;;;;;5015789;28;20037;-71
2021/07/10 06:32:51;;;;;;;3.85;1.05;;;;;;;;;;5016373;28;20056;-70
2021/07/10 06:35:17;;;;;;;3.47;1.20;;;;;;;;;;5016076;28;20460;-70
2021/07/10 06:37:43;;;;;;;1.20;1.10;;;;;;;;;;5015925;28;20026;-72
2021/07/10 06:40:10;;;;;;;2.50;1.02;;;;;;;;;;5016175;28;20029;-72
2021/07/10 06:42:36;;;;;;;2.15;1.40;;;;;;;;;;5015987;28;20026;-73
2021/07/10 06:45:03;;;;;;;1.55;1.40;;;;;;;;;;5015606;28;20496;-74
2021/07/10 06:47:29;;;;;;;1.88;1.02;;;;;;;;;;5015504;28;20502;-72
2021/07/10 06:49:57;;;;;;;1.00;0.73;;;;;;;;;;5016067;28;20022;-73
2021/07/10 06:52:23;;;;;;;0.82;0.82;;;;;;;;;;5016560;28;20026;-74
2021/07/10 06:54:49;;;;;;;1.00;1.00;;;;;;;;;;5016858;28;20058;-74
2021/07/10 06:57:15;;;;;;;0.70;0.70;;;;;;;;;;5015951;28;20037;-73
2021/07/10 06:59:42;;;;;;;1.45;0.85;;;;;;;;;;5014924;28;20030;-73
2021/07/10 07:02:08;;;;;;;0.85;0.85;;;;;;;;;;5015600;28;20445;-73
2021/07/10 07:04:34;;;;;;;1.58;0.80;;;;;;;;;;5015969;28;20029;-73
2021/07/10 07:07:00;;;;;;;7.35;1.05;;;;;;;;;;5015651;28;20073;-72
2021/07/10 07:09:26;;;;;;;3.17;1.13;;;;;;;;;;5014911;28;20022;-73
2021/07/10 07:11:52;;;;;;;0.98;0.93;;;;;;;;;;5015535;28;20040;-72
2021/07/10 07:14:19;;;;;;;3.85;1.23;;;;;;;;;;5015142;28;20492;-73
2021/07/10 07:16:45;;;;;;;1.10;1.00;;;;;;;;;;5015212;28;20030;-73
2021/07/10 07:19:11;;;;;;;1.25;1.15;;;;;;;;;;5015255;28;20057;-73
2021/07/10 07:21:37;;;;;;;1.10;1.00;;;;;;;;;;5014948;28;20025;-74
2021/07/10 07:24:03;;;;;;;2.10;1.88;;;;;;;;;;5015588;28;20034;-73
2021/07/10 07:26:29;;;;;;;3.13;2.10;;;;;;;;;;5015079;28;20357;-73
2021/07/10 07:28:55;;;;;;;2.50;1.60;;;;;;;;;;5014722;28;20026;-73
2021/07/10 07:31:21;;;;;;;1.85;1.60;;;;;;;;;;5014645;28;20030;-73
2021/07/10 07:33:47;;;;;;;1.67;1.40;;;;;;;;;;5015662;28;20480;-74
2021/07/10 07:36:13;;;;;;;1.55;1.45;;;;;;;;;;5014847;28;20463;-73
2021/07/10 07:38:39;;;;;;;1.45;1.35;;;;;;;;;;5014156;28;20030;-73
2021/07/10 07:41:06;;;;;;;0.85;0.85;;;;;;;;;;5014988;28;20028;-72
2021/07/10 07:43:32;;;;;;;1.23;0.88;;;;;;;;;;5014412;28;20034;-73
2021/07/10 07:45:58;;;;;;;1.73;1.20;;;;;;;;;;5014799;28;20033;-73
2021/07/10 07:48:24;;;;;;;2.28;1.25;;;;;;;;;;5014695;28;20030;-74
2021/07/10 07:50:50;;;;;;;1.50;1.40;;;;;;;;;;5014616;28;20036;-75
2021/07/10 07:53:18;;;;;;;1.00;1.00;;;;;;;;;;5014325;28;20096;-74
2021/07/10 07:55:44;;;;;;;1.77;1.40;;;;;;;;;;5014345;28;20030;-74
2021/07/10 07:58:10;;;;;;;1.10;1.00;;;;;;;;;;5014250;28;20034;-75
2021/07/10 08:00:36;;;;;;;1.35;1.13;;;;;;;;;;5014519;28;20106;-75
2021/07/10 08:03:02;;;;;;;1.65;1.13;;;;;;;;;;5014315;28;20535;-74
2021/07/10 08:05:28;;;;;;;2.80;1.45;;;;;;;;;;5014356;28;20041;-73
2021/07/10 08:07:54;;;;;;;7.70;1.05;;;;;;;;;;5014014;28;20025;-74
2021/07/10 08:10:21;;;;;;;4.40;1.50;;;;;;;;;;5014725;28;20441;-73
2021/07/10 08:12:49;;;;;;;2.22;1.05;;;;;;;;;;5014162;28;20091;-74
2021/07/10 08:15:16;;;;;;;3.17;1.55;;;;;;;;;;5014329;28;20050;-74
2021/07/10 08:17:42;;;;;;;1.30;1.10;;;;;;;;;;5014109;28;20052;-74
2021/07/10 08:20:09;;;;;;;2.42;1.40;;;;;;;;;;5014133;28;20033;-74
2021/07/10 08:22:35;;;;;;;1.52;1.42;;;;;;;;;;5013776;28;20427;-74
2021/07/10 08:25:01;;;;;;;2.30;1.38;;;;;;;;;;5013767;28;20379;-74
2021/07/10 08:27:27;;;;;;;48.17;4.45;;;;;;;;;;5013839;28;20017;-75
2021/07/10 08:29:53;;;;;;;13.00;2.47;;;;;;;;;;5013960;28;20030;-74
2021/07/10 08:32:19;;;;;;;15.52;3.33;;;;;;;;;;5013977;28;20025;-74
2021/07/10 08:34:45;;;;;;;11.20;2.38;;;;;;;;;;5014035;28;20034;-74
2021/07/10 08:37:11;;;;;;;18.10;1.90;;;;;;;;;;5014043;28;20026;-74
2021/07/10 08:39:37;;;;;;;8.20;1.90;;;;;;;;;;5017250;28;20384;-72
2021/07/10 08:42:04;;;;;;;9.20;2.08;;;;;;;;;;5032793;28;20038;-73
2021/07/10 08:44:30;;;;;;;12.13;2.25;;;;;;;;;;5032860;28;20056;-73
2021/07/10 08:46:56;;;;;;;3.63;1.75;;;;;;;;;;5032546;28;20024;-73
2021/07/10 08:49:22;;;;;;;12.40;2.03;;;;;;;;;;5032073;28;20028;-71
2021/07/10 08:51:48;;;;;;;8.77;1.52;;;;;;;;;;5024225;28;20384;-73
2021/07/10 08:54:15;;;;;;;2.80;1.40;;;;;;;;;;5021258;28;20080;-75
2021/07/10 08:56:41;;;;;;;1.60;1.35;;;;;;;;;;5032715;28;20028;-73
2021/07/10 08:59:09;;;;;;;3.10;1.23;;;;;;;;;;5034163;28;20068;-77
2021/07/10 09:01:35;;;;;;;6.75;2.88;;;;;;;;;;5032424;28;20035;-73
2021/07/10 09:04:02;;;;;;;14.13;2.08;;;;;;;;;;5032414;28;20026;-73
2021/07/10 09:06:28;;;;;;;3.17;1.40;;;;;;;;;;5022573;28;20071;-73
2021/07/10 09:08:55;;;;;;;3.88;1.50;;;;;;;;;;5024143;28;20097;-73
2021/07/10 09:11:22;;;;;;;2.15;1.35;;;;;;;;;;5022073;28;20080;-75
2021/07/10 09:13:48;;;;;;;3.25;1.88;;;;;;;;;;5032463;28;20064;-72
2021/07/10 09:16:16;;;;;;;2.10;1.30;;;;;;;;;;5032810;28;20108;-78
2021/07/10 09:18:46;;;;;;;1.42;1.20;;;;;;;;;;5032592;28;20024;-73
2021/07/10 09:21:14;;;;;;;3.22;1.45;;;;;;;;;;5022056;28;20460;-72
2021/07/10 09:23:41;;;;;;;5.43;2.17;;;;;;;;;;5032454;28;20499;-71
2021/07/10 09:26:25;;;;;;;1.10;1.00;;;;;;;;;;5032509;28;20537;-71
2021/07/10 09:29:09;;;;;;;8.88;1.75;;;;;;;;;;5032198;28;20474;-75
2021/07/10 09:31:37;;;;;;;2.20;1.35;;;;;;;;;;5032220;28;20018;-73
2021/07/10 09:34:07;;;;;;;1.23;0.90;;;;;;;;;;5033065;28;20041;-73
2021/07/10 09:36:34;;;;;;;8.80;3.92;;;;;;;;;;5032895;28;20022;-72
2021/07/10 09:39:00;;;;;;;45.22;34.08;;;;;;;;;;5032531;28;20075;-72
2021/07/10 09:41:29;;;;;;;61.10;44.67;;;;;;;;;;5031332;28;20372;-72
2021/07/10 09:44:03;;;;;;;59.13;47.88;;;;;;;;;;5031438;28;21291;-71
2021/07/10 09:46:29;;;;;;;57.03;44.15;;;;;;;;;;5030143;28;20045;-73
2021/07/10 09:48:55;;;;;;;40.22;33.50;;;;;;;;;;5031250;28;20394;-73
2021/07/10 09:51:25;;;;;;;45.92;25.73;;;;;;;;;;5031949;28;20056;-72
2021/07/10 09:54:07;;;;;;;36.22;24.20;;;;;;;;;;5031552;28;20111;-73
2021/07/10 09:56:37;;;;;;;36.10;23.05;;;;;;;;;;5030383;28;20537;-74
2021/07/10 09:59:15;;;;;;;27.95;18.30;;;;;;;;;;5029035;28;20029;-73
2021/07/10 10:01:42;;;;;;;25.10;17.35;;;;;;;;;;5029612;28;20047;-72
2021/07/10 10:04:25;;;;;;;28.67;14.68;;;;;;;;;;5034917;28;20026;-73
2021/07/10 10:06:51;;;;;;;21.98;11.63;;;;;;;;;;5032143;28;20026;-73
2021/07/10 10:09:20;;;;;;;18.13;9.25;;;;;;;;;;5024207;28;20022;-72
2021/07/10 10:11:47;;;;;;;11.68;8.48;;;;;;;;;;5033663;28;20017;-72
2021/07/10 10:14:13;;;;;;;11.65;6.95;;;;;;;;;;5034649;28;20048;-73
2021/07/10 10:16:45;;;;;;;8.45;5.63;;;;;;;;;;5023930;28;20093;-72
2021/07/10 10:19:10;;;;;;;;;;;;;;;;;;5035194;28;20128;-69
2021/07/10 10:21:37;;;;;;;7.90;4.15;;;;;;;;;;5025737;28;20345;-70
2021/07/10 10:24:04;;;;;;;4.57;3.53;;;;;;;;;;5016366;28;20026;-71
2021/07/10 10:26:30;;;;;;;4.35;3.40;;;;;;;;;;5016239;28;20030;-72
2021/07/10 10:28:56;;;;;;;4.07;2.72;;;;;;;;;;5016008;28;20022;-71
2021/07/10 10:31:22;;;;;;;3.88;2.55;;;;;;;;;;5015804;28;20026;-72
2021/07/10 10:33:49;;;;;;;4.53;2.67;;;;;;;;;;5014512;28;20460;-72
2021/07/10 10:36:15;;;;;;;4.50;1.83;;;;;;;;;;5016276;28;20476;-72
2021/07/10 10:38:41;;;;;;;3.58;1.98;;;;;;;;;;5015808;28;20033;-73
2021/07/10 10:41:08;;;;;;;2.88;1.70;;;;;;;;;;5015482;28;20061;-71
2021/07/10 10:43:34;;;;;;;1.88;1.77;;;;;;;;;;5015513;28;20029;-70
2021/07/10 10:46:11;;;;;;;5.00;1.73;;;;;;;;;;5016172;28;20133;-71
2021/07/10 10:48:38;;;;;;;4.05;2.90;;;;;;;;;;5015781;28;20029;-69
2021/07/10 10:51:23;;;;;;;5.75;3.17;;;;;;;;;;5016212;28;20029;-70
2021/07/10 10:53:49;;;;;;;11.63;4.38;;;;;;;;;;5015066;28;20053;-70
2021/07/10 10:56:35;;;;;;;10.00;6.57;;;;;;;;;;5015453;28;20476;-70
2021/07/10 10:59:01;;;;;;;9.15;5.15;;;;;;;;;;5014696;28;20057;-70
2021/07/10 11:01:31;;;;;;;9.63;4.20;;;;;;;;;;5014733;28;20030;-72
2021/07/10 11:03:58;;;;;;;11.43;5.43;;;;;;;;;;5015771;28;20112;-70
2021/07/10 11:06:28;;;;;;;9.65;4.55;;;;;;;;;;5014992;28;20026;-70
2021/07/10 11:08:54;;;;;;;7.22;4.03;;;;;;;;;;5014927;28;20030;-70
2021/07/10 11:11:22;;;;;;;4.88;3.88;;;;;;;;;;5015219;28;20044;-71
2021/07/10 11:13:58;;;;;;;6.38;4.38;;;;;;;;;;5015044;28;20042;-70
2021/07/10 11:16:24;;;;;;;9.10;5.47;;;;;;;;;;5015213;28;20498;-70
2021/07/10 11:18:51;;;;;;;6.22;3.72;;;;;;;;;;5014116;28;20053;-70
2021/07/10 11:21:37;;;;;;;3.30;2.40;;;;;;;;;;5015040;28;20033;-70
2021/07/10 11:24:23;;;;;;;2.75;2.08;;;;;;;;;;5013484;28;20133;-70
2021/07/10 11:27:09;;;;;;;8.32;2.53;;;;;;;;;;5014956;28;20065;-70
2021/07/10 11:29:36;;;;;;;7.88;2.65;;;;;;;;;;5013555;28;20022;-71
2021/07/10 11:32:19;;;;;;;2.92;2.03;;;;;;;;;;5014850;28;20072;-71
2021/07/10 11:34:47;;;;;;;3.45;2.40;;;;;;;;;;5014662;28;20100;-71
2021/07/10 11:37:13;;;;;;;3.90;2.42;;;;;;;;;;5016340;28;20081;-70
2021/07/10 11:39:41;;;;;;;6.82;2.45;;;;;;;;;;5012064;28;20056;-71
2021/07/10 11:42:28;;;;;;;4.50;2.22;;;;;;;;;;5013605;28;20022;-71
2021/07/10 11:44:59;;;;;;;6.10;2.05;;;;;;;;;;5013544;28;20064;-71
2021/07/10 11:47:33;;;;;;;8.75;2.83;;;;;;;;;;5014516;28;20065;-71
2021/07/10 11:49:59;;;;;;;2.63;2.00;;;;;;;;;;5013887;28;20029;-71
2021/07/10 11:52:25;;;;;;;9.13;1.98;;;;;;;;;;5014169;28;20365;-71
2021/07/10 11:54:52;;;;;;;1.73;1.63;;;;;;;;;;5013925;28;20058;-72
2021/07/10 11:57:18;;;;;;;2.42;1.50;;;;;;;;;;5014482;28;20258;-73
2021/07/10 11:59:45;;;;;;;6.07;5.47;;;;;;;;;;5014333;28;20058;-73
2021/07/10 12:02:32;;;;;;;2.55;1.70;;;;;;;;;;5013976;28;20030;-72
2021/07/10 12:05:00;;;;;;;5.13;2.40;;;;;;;;;;5012812;28;20030;-73
2021/07/10 12:07:26;;;;;;;7.05;1.83;;;;;;;;;;5013816;28;20025;-73
2021/07/10 12:09:52;;;;;;;1.70;1.60;;;;;;;;;;5012266;28;20026;-74
2021/07/10 12:12:19;;;;;;;2.45;1.75;;;;;;;;;;5012848;28;20521;-73
2021/07/10 12:15:00;;;;;;;12.13;2.00;;;;;;;;;;4967363;28;20089;-73
2021/07/10 12:17:26;;;;;;;2.65;1.95;;;;;;;;;;4974388;28;20059;-72
2021/07/10 12:19:52;;;;;;;4.38;2.28;;;;;;;;;;4973531;28;20059;-72
2021/07/10 12:22:18;;;;;;;3.55;1.88;;;;;;;;;;4973828;28;20082;-73
2021/07/10 12:24:45;;;;;;;4.32;1.60;;;;;;;;;;4973415;28;20027;-72
2021/07/10 12:27:11;;;;;;;3.67;2.40;;;;;;;;;;4974087;28;20133;-75
2021/07/10 12:29:37;;;;;;;2.55;1.98;;;;;;;;;;4973739;28;20031;-75
2021/07/10 12:32:04;;;;;;;2.10;1.65;;;;;;;;;;4974233;28;20109;-76
2021/07/10 12:34:30;;;;;;;6.03;1.70;;;;;;;;;;4973992;28;20046;-75
2021/07/10 12:36:59;;;;;;;8.48;3.95;;;;;;;;;;4974308;28;20042;-75
2021/07/10 12:39:25;;;;;;;4.85;2.33;;;;;;;;;;4974101;28;20031;-75
2021/07/10 12:41:54;;;;;;;2.88;1.90;;;;;;;;;;4973479;28;20106;-76
2021/07/10 12:44:35;;;;;;;6.68;2.30;;;;;;;;;;4974237;28;20070;-75
2021/07/10 12:47:01;;;;;;;;;;;;;;;;;;4974234;28;20113;-73
2021/07/10 12:49:36;;;;;;;9.05;2.00;;;;;;;;;;4973946;28;19992;-74
2021/07/10 12:52:02;;;;;;;6.75;2.67;;;;;;;;;;4974133;28;20433;-73
2021/07/10 12:54:32;;;;;;;4.10;2.28;;;;;;;;;;4974238;28;20051;-74
2021/07/10 12:57:00;;;;;;;2.55;1.70;;;;;;;;;;4973534;28;20031;-74
2021/07/10 12:59:32;;;;;;;4.70;1.85;;;;;;;;;;4974074;28;20030;-74
2021/07/10 13:01:58;;;;;;;1.13;1.13;;;;;;;;;;4973932;28;20085;-74
2021/07/10 13:04:30;;;;;;;2.00;1.80;;;;;;;;;;4973672;28;20031;-74
2021/07/10 13:06:59;;;;;;;1.85;1.70;;;;;;;;;;4974758;28;20377;-74
2021/07/10 13:09:35;;;;;;;1.60;1.50;;;;;;;;;;4974018;28;20023;-74
2021/07/10 13:12:01;;;;;;;1.58;1.48;;;;;;;;;;4973946;28;20468;-73
2021/07/10 13:14:27;;;;;;;2.17;1.80;;;;;;;;;;4974067;28;20580;-73
2021/07/10 13:16:54;;;;;;;3.15;1.65;;;;;;;;;;4974352;28;20027;-74
2021/07/10 13:19:35;;;;;;;4.43;1.80;;;;;;;;;;4973774;28;20026;-74
2021/07/10 13:22:01;;;;;;;3.38;1.77;;;;;;;;;;4974444;28;20026;-71
2021/07/10 13:24:27;;;;;;;4.32;1.77;;;;;;;;;;4973599;28;20050;-71
2021/07/10 13:26:53;;;;;;;3.15;2.00;;;;;;;;;;4974072;28;20512;-72
2021/07/10 13:29:21;;;;;;;5.35;2.33;;;;;;;;;;4974347;28;20118;-72
2021/07/10 13:31:48;;;;;;;2.55;2.35;;;;;;;;;;4974343;28;20023;-72
2021/07/10 13:34:15;;;;;;;2.50;2.30;;;;;;;;;;4973976;28;20038;-71
2021/07/10 13:36:42;;;;;;;2.10;1.90;;;;;;;;;;4975418;28;20027;-72
2021/07/10 13:39:11;;;;;;;2.40;2.20;;;;;;;;;;4977254;28;20256;-72
2021/07/10 13:41:38;;;;;;;2.38;2.17;;;;;;;;;;4977607;28;20162;-72
2021/07/10 13:44:05;;;;;;;5.38;2.75;;;;;;;;;;4977473;28;20556;-72
2021/07/10 13:46:32;;;;;;;3.92;2.03;;;;;;;;;;4977898;28;20031;-71
2021/07/10 13:48:59;;;;;;;2.53;2.30;;;;;;;;;;4977426;28;20494;-72
2021/07/10 13:51:25;;;;;;;2.58;2.30;;;;;;;;;;4977679;28;20027;-71
2021/07/10 13:53:52;;;;;;;3.25;2.95;;;;;;;;;;4977531;28;20047;-71
2021/07/10 13:56:18;;;;;;;3.53;2.55;;;;;;;;;;4977244;28;20034;-72
2021/07/10 13:59:00;;;;;;;3.33;3.03;;;;;;;;;;4977378;28;20033;-71
2021/07/10 14:01:26;;;;;;;3.63;2.83;;;;;;;;;;4977240;28;20485;-71
2021/07/10 14:03:52;;;;;;;4.55;3.20;;;;;;;;;;4976652;28;20034;-71
2021/07/10 14:06:18;;;;;;;3.13;2.83;;;;;;;;;;4977245;28;20034;-72
2021/07/10 14:08:45;;;;;;;4.75;2.97;;;;;;;;;;4977865;28;20043;-71
2021/07/10 14:11:11;;;;;;;3.42;3.08;;;;;;;;;;4976655;28;20373;-71
2021/07/10 14:13:38;;;;;;;4.47;3.33;;;;;;;;;;4977189;28;20031;-71
2021/07/10 14:16:04;;;;;;;15.85;7.55;;;;;;;;;;4977040;28;20035;-71
2021/07/10 14:18:30;;;;;;;9.48;4.65;;;;;;;;;;4976930;28;20362;-71
2021/07/10 14:20:56;;;;;;;3.83;3.53;;;;;;;;;;4976616;28;20023;-71
2021/07/10 14:23:23;;;;;;;6.93;3.78;;;;;;;;;;4977015;28;20034;-72
2021/07/10 14:25:50;;;;;;;3.47;3.17;;;;;;;;;;4977070;28;20464;-71
2021/07/10 14:28:16;;;;;;;4.00;3.13;;;;;;;;;;4977145;28;20125;-71
2021/07/10 14:30:42;;;;;;;10.38;4.38;;;;;;;;;;4976592;28;20027;-71
2021/07/10 14:33:08;;;;;;;3.47;3.20;;;;;;;;;;4976886;28;20027;-72
2021/07/10 14:35:34;;;;;;;3.85;2.90;;;;;;;;;;4976571;28;20472;-71
2021/07/10 14:38:00;;;;;;;2.97;2.67;;;;;;;;;;4976562;28;20035;-71
2021/07/10 14:40:27;;;;;;;3.83;2.40;;;;;;;;;;4977268;28;20109;-72
2021/07/10 14:42:53;;;;;;;4.43;2.70;;;;;;;;;;4977121;28;20027;-71